If you wish to contribute or participate in the discussions about articles you are invited to join SKYbrary as a registered user

 Actions

Bandar Lengeh Airport

From SKYbrary Wiki

OIBL
Airport
ICAO: OIBL – IATA: BDH
Summary
Name Bandar Lengeh Airport
Region Middle East
Territory Iran IR.gif
Location Sadaf, Bandar Lengeh
Serving Bandar Lengeh
Elevation 20.422 m
67 ft20.422 m
Coordinates 26° 31' 52.64" N, 54° 49' 39.91" E
Runways
Designator Length Width Surface ROPS
8/26 2500 m8,202.1 ft
45 m147.638 ft
ASP /


METAR
Observation OIBL 250800Z 00000KT CAVOK 28/11 Q1013
Station Bandar Lengeh
Date/Time 25 April 2019 08:00:00
Wind direction
Wind speed 00 kts
Lowest cloud amount clouds and visibility OK
Temperature 28°C
Dew point 11°C
Humidity 34%
QNH 1013 hPa
Weather condition n/a

Airport 6km3.24 nm
6,000 m
19,685.039 ft
southwest of Bandar Length, Iran.

Climatology

Hot Desert climate (Köppen climate classification BWh).

Maps

Terrain

Loading map...

Airport Layout

Loading map...


Accidents & Serious Incidents at or in vicinity of OIBL

None on SKYbrary